createdAt,value
2023-02-11T00:00:17.637Z,4.47
2023-02-11T00:03:03.071Z,4.46
2023-02-11T00:06:00.321Z,4.59
2023-02-11T00:08:45.892Z,4.61
2023-02-11T00:11:30.812Z,4.64
2023-02-11T00:14:16.398Z,4.67
2023-02-11T00:17:01.418Z,4.65
2023-02-11T00:19:52.268Z,4.68
2023-02-11T00:22:37.106Z,4.70
2023-02-11T00:25:22.401Z,4.73
2023-02-11T00:28:07.551Z,4.76
2023-02-11T00:30:57.646Z,4.76
2023-02-11T00:33:42.966Z,4.89
2023-02-11T00:36:30.362Z,4.86
2023-02-11T00:39:15.610Z,4.89
2023-02-11T00:42:01.078Z,4.89
2023-02-11T00:44:46.240Z,4.87
2023-02-11T00:47:31.098Z,4.92
2023-02-11T00:50:16.176Z,4.92
2023-02-11T00:53:01.025Z,4.94
2023-02-11T00:55:45.759Z,4.94
2023-02-11T00:58:31.096Z,5.00
2023-02-11T01:01:16.313Z,4.97
2023-02-11T01:04:01.405Z,4.94
2023-02-11T01:06:46.132Z,4.98
2023-02-11T01:09:31.431Z,5.05
2023-02-11T01:12:16.202Z,5.02
2023-02-11T01:15:01.066Z,5.01
2023-02-11T01:17:46.155Z,4.99
2023-02-11T01:20:31.113Z,4.99
2023-02-11T01:23:16.533Z,5.00
2023-02-11T01:26:01.949Z,4.98
2023-02-11T01:28:47.074Z,4.96
2023-02-11T01:31:32.959Z,4.94
2023-02-11T01:34:18.092Z,4.97
2023-02-11T01:37:03.236Z,5.00
2023-02-11T01:39:48.189Z,5.03
2023-02-11T01:42:34.017Z,4.96
2023-02-11T01:45:43.737Z,4.95
2023-02-11T01:48:34.140Z,4.95
2023-02-11T01:51:25.077Z,4.99
2023-02-11T01:54:33.411Z,4.98
2023-02-11T01:57:25.439Z,5.01
2023-02-11T02:00:15.420Z,4.99
2023-02-11T02:03:05.210Z,5.02
2023-02-11T02:06:07.817Z,5.03
2023-02-11T02:09:03.421Z,5.03
2023-02-11T02:11:48.418Z,4.95
2023-02-11T02:14:34.147Z,4.98
2023-02-11T02:17:32.367Z,4.94
2023-02-11T02:20:31.733Z,4.98
2023-02-11T02:23:29.557Z,4.95
2023-02-11T02:26:52.161Z,4.95
2023-02-11T02:30:05.103Z,4.96
2023-02-11T02:33:24.925Z,4.99
2023-02-11T02:36:22.664Z,4.92
2023-02-11T02:39:29.427Z,4.95
2023-02-11T02:42:16.305Z,4.97
2023-02-11T02:45:01.762Z,4.96
2023-02-11T02:47:46.638Z,4.93
2023-02-11T02:50:35.953Z,4.94
2023-02-11T02:53:40.166Z,4.91
2023-02-11T02:56:55.240Z,4.96
2023-02-11T03:00:11.389Z,4.97
2023-02-11T03:03:27.473Z,4.93
2023-02-11T03:06:23.317Z,5.02
2023-02-11T03:09:28.336Z,4.92
2023-02-11T03:12:15.329Z,4.98
2023-02-11T03:15:04.014Z,5.05
2023-02-11T03:17:53.849Z,5.00
2023-02-11T03:20:43.647Z,5.01
2023-02-11T03:23:34.441Z,4.95
2023-02-11T03:26:32.711Z,4.99
2023-02-11T03:29:33.312Z,5.00
2023-02-11T03:32:34.859Z,5.00
2023-02-11T03:35:48.735Z,5.04
2023-02-11T03:38:39.699Z,5.02
2023-02-11T03:41:25.710Z,4.95
2023-02-11T03:44:14.166Z,4.97
2023-02-11T03:47:02.757Z,5.05
2023-02-11T03:49:52.186Z,5.05
2023-02-11T03:52:38.192Z,5.04
2023-02-11T03:55:25.865Z,5.08
2023-02-11T03:58:11.067Z,5.07
2023-02-11T04:00:56.166Z,5.11
2023-02-11T04:03:41.627Z,5.11
2023-02-11T04:06:26.295Z,5.08
2023-02-11T04:09:11.173Z,5.15
2023-02-11T04:11:56.068Z,5.14
2023-02-11T04:14:40.908Z,5.15
2023-02-11T04:17:26.653Z,5.15
2023-02-11T04:20:11.819Z,5.21
2023-02-11T04:22:57.318Z,5.27
2023-02-11T04:25:42.640Z,5.30
2023-02-11T04:28:29.395Z,5.24
2023-02-11T04:31:14.453Z,5.29
2023-02-11T04:33:59.650Z,5.33
2023-02-11T04:36:44.484Z,5.31
2023-02-11T04:39:29.332Z,5.35
2023-02-11T04:42:14.399Z,5.31
2023-02-11T04:44:59.501Z,5.32
2023-02-11T04:47:44.729Z,5.31
2023-02-11T04:50:30.037Z,5.30
2023-02-11T04:53:14.821Z,5.33
2023-02-11T04:55:59.716Z,5.32
2023-02-11T04:58:45.014Z,5.34
2023-02-11T05:01:30.417Z,5.36
2023-02-11T05:04:15.801Z,5.40
2023-02-11T05:07:00.820Z,5.39
2023-02-11T05:09:45.711Z,5.41
2023-02-11T05:12:30.832Z,5.41
2023-02-11T05:15:16.119Z,5.40
2023-02-11T05:18:01.007Z,5.33
2023-02-11T05:20:45.900Z,5.42
2023-02-11T05:23:30.910Z,5.48
2023-02-11T05:26:16.121Z,5.46
2023-02-11T05:29:01.585Z,5.43
2023-02-11T05:31:46.464Z,5.45
2023-02-11T05:34:31.325Z,5.48
2023-02-11T05:37:16.301Z,5.46
2023-02-11T05:40:01.840Z,5.50
2023-02-11T05:42:46.579Z,5.45
2023-02-11T05:45:31.659Z,5.50
2023-02-11T05:48:16.855Z,5.49
2023-02-11T05:51:01.916Z,5.45
2023-02-11T05:53:47.073Z,5.47
2023-02-11T05:56:31.864Z,5.52
2023-02-11T05:59:17.792Z,5.47
2023-02-11T06:02:02.648Z,5.48
2023-02-11T06:04:48.252Z,5.45
2023-02-11T06:07:33.146Z,5.47
2023-02-11T06:10:18.457Z,5.52
2023-02-11T06:13:03.901Z,5.57
2023-02-11T06:15:59.827Z,5.53
2023-02-11T06:18:45.158Z,5.56
2023-02-11T06:21:42.849Z,5.57
2023-02-11T06:24:54.690Z,5.52
2023-02-11T06:27:33.835Z,5.57
2023-02-11T06:30:19.465Z,5.56
2023-02-11T06:33:04.918Z,5.56
2023-02-11T06:35:50.898Z,5.60
2023-02-11T06:38:36.491Z,5.65
2023-02-11T06:41:21.626Z,5.60
2023-02-11T06:44:07.032Z,5.62
2023-02-11T06:46:53.187Z,5.61
2023-02-11T06:49:38.314Z,5.64
2023-02-11T06:52:24.605Z,5.66
2023-02-11T06:55:09.745Z,5.64
2023-02-11T06:57:54.648Z,5.64
2023-02-11T07:00:40.196Z,5.64
2023-02-11T07:03:25.284Z,5.65
2023-02-11T07:06:14.494Z,5.68
2023-02-11T07:08:59.666Z,5.64
2023-02-11T07:11:45.424Z,5.74
2023-02-11T07:14:30.609Z,5.69
2023-02-11T07:17:15.866Z,5.70
2023-02-11T07:20:00.770Z,5.72
2023-02-11T07:22:45.590Z,5.69
2023-02-11T07:25:31.646Z,5.75
2023-02-11T07:28:16.791Z,5.74
2023-02-11T07:31:09.247Z,5.72
2023-02-11T07:33:57.252Z,5.78
2023-02-11T07:36:44.108Z,5.77
2023-02-11T07:39:29.407Z,5.79
2023-02-11T07:42:14.601Z,5.77
2023-02-11T07:44:59.424Z,5.83
2023-02-11T07:47:44.809Z,5.79
2023-02-11T07:50:29.926Z,5.82
2023-02-11T07:53:15.348Z,5.82
2023-02-11T07:56:00.995Z,5.84
2023-02-11T07:58:46.371Z,5.83
2023-02-11T08:01:32.208Z,5.84
2023-02-11T08:04:19.761Z,5.83
2023-02-11T08:07:04.987Z,5.81
2023-02-11T08:09:50.149Z,5.82
2023-02-11T08:12:35.469Z,5.81
2023-02-11T08:15:20.328Z,5.83
2023-02-11T08:18:05.390Z,5.79
2023-02-11T08:20:50.769Z,5.85
2023-02-11T08:23:37.389Z,5.86
2023-02-11T08:26:26.101Z,5.82
2023-02-11T08:29:13.000Z,5.84
2023-02-11T08:31:58.069Z,5.81
2023-02-11T08:34:43.248Z,5.81
2023-02-11T08:37:28.070Z,5.85
2023-02-11T08:40:12.944Z,5.89
2023-02-11T08:42:57.774Z,5.86
2023-02-11T08:45:42.811Z,5.93
2023-02-11T08:48:29.007Z,5.87
2023-02-11T08:51:20.366Z,5.88
2023-02-11T08:54:09.603Z,5.90
2023-02-11T08:56:54.525Z,5.96
2023-02-11T08:59:40.758Z,5.93
2023-02-11T09:02:26.165Z,5.96
2023-02-11T09:05:12.426Z,5.96
2023-02-11T09:07:57.613Z,5.99
2023-02-11T09:10:42.848Z,6.01
2023-02-11T09:13:28.579Z,6.01
2023-02-11T09:16:22.458Z,6.00
2023-02-11T09:19:07.111Z,5.98
2023-02-11T09:21:52.334Z,5.96
2023-02-11T09:24:38.017Z,5.96
2023-02-11T09:27:23.321Z,5.99
2023-02-11T09:30:08.520Z,5.97
2023-02-11T09:32:54.080Z,5.99
2023-02-11T09:35:39.518Z,5.96
2023-02-11T09:38:24.678Z,5.97
2023-02-11T09:41:35.263Z,6.00
2023-02-11T09:44:24.191Z,6.02
2023-02-11T09:47:31.749Z,6.01
2023-02-11T09:50:24.004Z,6.08
2023-02-11T09:53:42.290Z,6.01
2023-02-11T09:56:28.217Z,5.96
2023-02-11T09:59:16.401Z,5.96
2023-02-11T10:02:12.686Z,5.97
2023-02-11T10:05:34.010Z,5.96
2023-02-11T10:08:32.827Z,6.04
2023-02-11T10:11:31.577Z,5.99
2023-02-11T10:14:48.773Z,5.99
2023-02-11T10:18:07.788Z,6.05
2023-02-11T10:21:20.013Z,6.01
2023-02-11T10:24:12.153Z,6.04
2023-02-11T10:26:59.452Z,6.06
2023-02-11T10:30:02.589Z,6.11
2023-02-11T10:33:11.404Z,6.13
2023-02-11T10:35:56.392Z,6.11
2023-02-11T10:38:45.136Z,6.13
2023-02-11T10:41:37.712Z,6.10
2023-02-11T10:44:29.514Z,6.13
2023-02-11T10:47:21.874Z,6.11
2023-02-11T10:50:22.187Z,6.14
2023-02-11T10:53:17.211Z,6.16
2023-02-11T10:56:04.000Z,6.19
2023-02-11T10:59:01.105Z,6.18
2023-02-11T11:02:07.746Z,6.17
2023-02-11T11:04:57.838Z,6.16
2023-02-11T11:07:56.576Z,6.14
2023-02-11T11:11:07.382Z,6.22
2023-02-11T11:13:52.156Z,6.15
2023-02-11T11:16:37.272Z,6.22
2023-02-11T11:19:27.712Z,6.23
2023-02-11T11:22:22.556Z,6.23
2023-02-11T11:25:30.291Z,6.28
2023-02-11T11:28:27.662Z,6.27
2023-02-11T11:31:26.684Z,6.30
2023-02-11T11:34:23.099Z,6.33
2023-02-11T11:37:23.068Z,6.30
2023-02-11T11:40:24.444Z,6.32
2023-02-11T11:43:15.411Z,6.36
2023-02-11T11:46:01.000Z,6.30
2023-02-11T11:48:49.216Z,6.36
2023-02-11T11:51:41.663Z,6.36
2023-02-11T11:54:28.707Z,6.38
2023-02-11T11:57:21.065Z,6.43
2023-02-11T12:00:15.484Z,6.44
2023-02-11T12:03:28.511Z,6.42
2023-02-11T12:06:35.493Z,6.47
2023-02-11T12:09:39.166Z,6.45
2023-02-11T12:12:35.874Z,6.52
2023-02-11T12:15:43.730Z,6.46
2023-02-11T12:19:01.920Z,6.49
2023-02-11T12:22:20.262Z,6.46
2023-02-11T12:25:26.325Z,6.52
2023-02-11T12:28:40.921Z,6.50
2023-02-11T12:31:44.055Z,6.50
2023-02-11T12:35:09.744Z,6.53
2023-02-11T12:38:24.533Z,6.50
2023-02-11T12:42:03.429Z,6.56
2023-02-11T12:45:14.682Z,6.56
2023-02-11T12:48:35.909Z,6.60
2023-02-11T12:51:43.922Z,6.58
2023-02-11T12:54:40.016Z,6.56
2023-02-11T12:57:30.952Z,6.60
2023-02-11T13:00:23.783Z,6.60
2023-02-11T13:03:24.111Z,6.58
2023-02-11T13:06:17.721Z,6.66
2023-02-11T13:09:06.479Z,6.62
2023-02-11T13:11:56.245Z,6.65
2023-02-11T13:14:41.900Z,6.61
2023-02-11T13:17:36.918Z,6.61
2023-02-11T13:20:33.377Z,6.66
2023-02-11T13:23:44.799Z,6.64
2023-02-11T13:26:39.375Z,6.67
2023-02-11T13:30:04.596Z,6.65
2023-02-11T13:32:55.490Z,6.65
2023-02-11T13:35:52.974Z,6.67
2023-02-11T13:38:39.098Z,6.68
2023-02-11T13:41:29.892Z,6.67
2023-02-11T13:44:23.960Z,6.64
2023-02-11T13:47:27.478Z,6.66
2023-02-11T13:50:25.128Z,6.62
2023-02-11T13:53:10.046Z,6.66
2023-02-11T13:56:12.090Z,6.64
2023-02-11T13:59:02.413Z,6.72
2023-02-11T14:02:10.451Z,6.72
2023-02-11T14:05:27.612Z,6.71
2023-02-11T14:08:39.409Z,6.73
2023-02-11T14:11:27.641Z,6.72
2023-02-11T14:14:15.453Z,6.76
2023-02-11T14:17:00.697Z,6.74
2023-02-11T14:19:47.904Z,6.73
2023-02-11T14:22:49.388Z,6.79
2023-02-11T14:25:37.048Z,6.83
2023-02-11T14:28:27.305Z,6.86
2023-02-11T14:31:18.384Z,6.84
2023-02-11T14:34:39.889Z,6.89
2023-02-11T14:38:02.581Z,6.83
2023-02-11T14:41:11.538Z,6.80
2023-02-11T14:44:00.346Z,6.80
2023-02-11T14:46:48.557Z,6.81
2023-02-11T14:49:38.601Z,6.78
2023-02-11T14:52:31.720Z,6.81
2023-02-11T14:55:34.113Z,6.83
2023-02-11T14:58:25.139Z,6.80
2023-02-11T15:01:28.310Z,6.79
2023-02-11T15:04:28.422Z,6.89
2023-02-11T15:07:15.343Z,6.81
2023-02-11T15:10:00.639Z,6.82
2023-02-11T15:12:49.869Z,6.84
2023-02-11T15:15:37.864Z,6.82
2023-02-11T15:18:37.835Z,6.81
2023-02-11T15:21:29.863Z,6.81
2023-02-11T15:24:31.363Z,6.89
2023-02-11T15:27:18.301Z,6.85
2023-02-11T15:30:23.639Z,6.86
2023-02-11T15:33:23.145Z,6.85
2023-02-11T15:36:13.799Z,6.87
2023-02-11T15:39:19.124Z,6.87
2023-02-11T15:42:28.047Z,6.84
2023-02-11T15:45:16.449Z,6.90
2023-02-11T15:48:20.365Z,6.84
2023-02-11T15:51:29.721Z,6.89
2023-02-11T15:54:19.563Z,6.86
2023-02-11T15:57:10.748Z,6.93
2023-02-11T15:59:56.224Z,6.87
2023-02-11T16:02:45.268Z,6.90
2023-02-11T16:05:33.189Z,6.88
2023-02-11T16:08:26.171Z,6.94
2023-02-11T16:11:26.855Z,6.95
2023-02-11T16:14:36.872Z,6.90
2023-02-11T16:17:28.500Z,6.89
2023-02-11T16:20:20.318Z,6.89
2023-02-11T16:23:09.874Z,6.92
2023-02-11T16:26:01.307Z,6.93
2023-02-11T16:28:49.388Z,6.94
2023-02-11T16:31:38.351Z,6.91
2023-02-11T16:34:27.559Z,6.92
2023-02-11T16:37:12.663Z,6.96
2023-02-11T16:40:00.019Z,6.97
2023-02-11T16:42:45.108Z,6.92
2023-02-11T16:45:32.169Z,6.93
2023-02-11T16:48:21.630Z,6.95
2023-02-11T16:51:09.522Z,6.92
2023-02-11T16:53:54.665Z,6.92
2023-02-11T16:56:39.875Z,6.89
2023-02-11T16:59:25.481Z,6.94
2023-02-11T17:02:31.159Z,6.95
2023-02-11T17:05:22.906Z,6.94
2023-02-11T17:08:09.908Z,6.94
2023-02-11T17:10:58.333Z,6.96
2023-02-11T17:13:45.634Z,6.93
2023-02-11T17:16:30.932Z,6.98
2023-02-11T17:19:19.551Z,6.99
2023-02-11T17:22:04.994Z,6.98
2023-02-11T17:24:49.923Z,6.99
2023-02-11T17:27:35.200Z,7.03
2023-02-11T17:30:20.219Z,6.98
2023-02-11T17:33:05.893Z,6.97
2023-02-11T17:35:53.582Z,6.98
2023-02-11T17:38:38.876Z,6.98
2023-02-11T17:41:23.943Z,6.99
2023-02-11T17:44:12.617Z,7.03
2023-02-11T17:46:57.441Z,7.01
2023-02-11T17:49:43.175Z,6.98
2023-02-11T17:52:29.485Z,7.06
2023-02-11T17:55:14.526Z,7.03
2023-02-11T17:58:00.366Z,7.04
2023-02-11T18:00:45.648Z,7.02
2023-02-11T18:03:31.792Z,6.99
2023-02-11T18:06:17.792Z,6.96
2023-02-11T18:09:04.700Z,7.04
2023-02-11T18:11:52.387Z,6.94
2023-02-11T18:14:41.145Z,6.95
2023-02-11T18:17:26.448Z,6.99
2023-02-11T18:20:11.683Z,7.00
2023-02-11T18:22:56.845Z,6.90
2023-02-11T18:25:45.642Z,6.95
2023-02-11T18:28:31.319Z,6.96
2023-02-11T18:31:17.217Z,6.94
2023-02-11T18:34:07.203Z,6.97
2023-02-11T18:36:54.473Z,6.94
2023-02-11T18:39:40.708Z,6.90
2023-02-11T18:42:28.584Z,6.99
2023-02-11T18:45:15.006Z,7.00
2023-02-11T18:48:03.504Z,6.92
2023-02-11T18:50:48.989Z,6.96
2023-02-11T18:53:36.727Z,6.91
2023-02-11T18:56:24.602Z,6.89
2023-02-11T18:59:09.892Z,6.92
2023-02-11T19:01:54.724Z,6.96
2023-02-11T19:04:40.300Z,6.97
2023-02-11T19:07:25.595Z,6.92
2023-02-11T19:10:14.111Z,7.00
2023-02-11T19:13:02.364Z,6.94
2023-02-11T19:15:47.758Z,6.95
2023-02-11T19:18:32.529Z,6.95
2023-02-11T19:21:17.702Z,6.99
2023-02-11T19:24:08.399Z,6.93
2023-02-11T19:26:57.197Z,6.93
2023-02-11T19:29:43.017Z,6.92
2023-02-11T19:32:28.356Z,6.96
2023-02-11T19:35:13.492Z,6.97
2023-02-11T19:37:59.689Z,6.93
2023-02-11T19:40:45.005Z,6.98
2023-02-11T19:43:30.412Z,6.90
2023-02-11T19:46:15.770Z,6.87
2023-02-11T19:49:04.375Z,6.91
2023-02-11T19:51:56.463Z,6.95
2023-02-11T19:54:42.060Z,6.91
2023-02-11T19:57:27.352Z,7.02
2023-02-11T20:00:14.121Z,6.94
2023-02-11T20:02:59.510Z,6.95
2023-02-11T20:05:47.003Z,6.99
2023-02-11T20:08:33.510Z,6.96
2023-02-11T20:11:19.933Z,6.90
2023-02-11T20:14:06.681Z,6.96
2023-02-11T20:16:51.820Z,6.94
2023-02-11T20:19:38.181Z,6.95
2023-02-11T20:22:23.654Z,6.96
2023-02-11T20:25:10.724Z,6.95
2023-02-11T20:27:56.510Z,6.97
2023-02-11T20:30:44.051Z,6.93
2023-02-11T20:33:33.468Z,6.93
2023-02-11T20:36:30.638Z,6.97
2023-02-11T20:39:17.093Z,6.98
2023-02-11T20:42:03.745Z,6.97
2023-02-11T20:44:50.423Z,6.95
2023-02-11T20:47:37.888Z,6.98
2023-02-11T20:50:24.295Z,6.98
2023-02-11T20:53:10.647Z,6.97
2023-02-11T20:55:57.181Z,6.96
2023-02-11T20:58:43.333Z,6.95
2023-02-11T21:01:37.087Z,7.04
2023-02-11T21:04:28.277Z,6.97
2023-02-11T21:07:13.273Z,6.94
2023-02-11T21:09:58.593Z,6.93
2023-02-11T21:12:51.732Z,6.98
2023-02-11T21:15:36.723Z,6.96
2023-02-11T21:18:23.450Z,6.95
2023-02-11T21:21:10.087Z,6.98
2023-02-11T21:23:56.072Z,7.00
2023-02-11T21:26:43.432Z,7.00
2023-02-11T21:29:29.969Z,6.94
2023-02-11T21:32:17.884Z,7.01
2023-02-11T21:35:07.053Z,7.01
2023-02-11T21:37:53.497Z,6.96
2023-02-11T21:40:38.880Z,7.00
2023-02-11T21:43:27.189Z,6.98
2023-02-11T21:46:14.894Z,6.99
2023-02-11T21:49:01.763Z,6.96
2023-02-11T21:51:46.605Z,6.97
2023-02-11T21:54:32.151Z,6.94
2023-02-11T21:57:19.217Z,6.94
2023-02-11T22:00:07.726Z,6.98
2023-02-11T22:02:54.159Z,7.03
2023-02-11T22:05:41.065Z,6.98
2023-02-11T22:08:26.380Z,6.95
2023-02-11T22:11:12.872Z,6.96
2023-02-11T22:13:59.479Z,6.94
2023-02-11T22:16:46.259Z,6.99
2023-02-11T22:19:34.844Z,6.95
2023-02-11T22:22:19.749Z,6.98
2023-02-11T22:25:04.757Z,6.97
2023-02-11T22:27:49.782Z,7.00
2023-02-11T22:30:34.826Z,6.95
2023-02-11T22:33:19.917Z,6.97
2023-02-11T22:36:08.489Z,6.96
2023-02-11T22:38:54.831Z,6.95
2023-02-11T22:41:43.074Z,6.97
2023-02-11T22:44:28.186Z,6.97
2023-02-11T22:47:13.446Z,7.02
2023-02-11T22:49:58.360Z,6.97
2023-02-11T22:52:43.148Z,6.90
2023-02-11T22:55:28.023Z,6.96
2023-02-11T22:58:13.083Z,6.96
2023-02-11T23:00:58.283Z,6.96
2023-02-11T23:03:43.407Z,6.94
2023-02-11T23:06:28.529Z,6.98
2023-02-11T23:09:13.633Z,6.97
2023-02-11T23:11:58.562Z,6.95
2023-02-11T23:14:43.989Z,6.92
2023-02-11T23:17:29.151Z,6.87
2023-02-11T23:20:14.664Z,6.98
2023-02-11T23:22:59.704Z,6.94
2023-02-11T23:25:44.882Z,6.92
2023-02-11T23:28:30.259Z,6.95
2023-02-11T23:31:30.978Z,6.98
2023-02-11T23:34:17.112Z,6.99
2023-02-11T23:37:02.590Z,6.95
2023-02-11T23:39:47.425Z,6.92
2023-02-11T23:42:32.480Z,6.95
2023-02-11T23:45:17.319Z,6.93
2023-02-11T23:48:02.205Z,6.96
2023-02-11T23:50:47.046Z,6.99
2023-02-11T23:53:32.082Z,7.01
2023-02-11T23:56:20.595Z,6.96
2023-02-11T23:59:05.640Z,6.92
